sensor_id;sensor_type;location;lat;lon;timestamp;temperature;humidity
8402;DHT22;4238;48.404;9.498;2023-03-01T00:01:14;-1.90;33.30
8402;DHT22;4238;48.404;9.498;2023-03-01T00:03:42;-1.80;31.80
8402;DHT22;4238;48.404;9.498;2023-03-01T00:06:09;-1.80;31.20
8402;DHT22;4238;48.404;9.498;2023-03-01T00:08:36;-1.60;29.20
8402;DHT22;4238;48.404;9.498;2023-03-01T00:11:06;-1.70;27.60
8402;DHT22;4238;48.404;9.498;2023-03-01T00:13:34;-1.60;27.90
8402;DHT22;4238;48.404;9.498;2023-03-01T00:16:02;-1.60;27.90
8402;DHT22;4238;48.404;9.498;2023-03-01T00:18:31;-1.60;28.40
8402;DHT22;4238;48.404;9.498;2023-03-01T00:20:58;-1.60;33.90
8402;DHT22;4238;48.404;9.498;2023-03-01T00:23:25;-1.70;32.40
8402;DHT22;4238;48.404;9.498;2023-03-01T00:25:52;-1.50;32.20
8402;DHT22;4238;48.404;9.498;2023-03-01T00:28:19;-1.50;32.50
8402;DHT22;4238;48.404;9.498;2023-03-01T00:30:47;-1.50;29.60
8402;DHT22;4238;48.404;9.498;2023-03-01T00:33:14;-1.50;25.70
8402;DHT22;4238;48.404;9.498;2023-03-01T00:35:42;-1.40;25.60
8402;DHT22;4238;48.404;9.498;2023-03-01T00:38:09;-1.50;26.70
8402;DHT22;4238;48.404;9.498;2023-03-01T00:40:36;-1.50;28.90
8402;DHT22;4238;48.404;9.498;2023-03-01T00:43:04;-1.40;31.70
8402;DHT22;4238;48.404;9.498;2023-03-01T00:45:32;-1.40;28.80
8402;DHT22;4238;48.404;9.498;2023-03-01T00:47:59;-1.40;33.10
8402;DHT22;4238;48.404;9.498;2023-03-01T00:50:26;-1.50;31.10
8402;DHT22;4238;48.404;9.498;2023-03-01T00:52:55;-1.40;34.60
8402;DHT22;4238;48.404;9.498;2023-03-01T00:55:22;-1.40;37.60
8402;DHT22;4238;48.404;9.498;2023-03-01T00:57:49;-1.40;31.20
8402;DHT22;4238;48.404;9.498;2023-03-01T01:00:16;-1.30;29.90
8402;DHT22;4238;48.404;9.498;2023-03-01T01:02:44;-1.30;29.60
8402;DHT22;4238;48.404;9.498;2023-03-01T01:05:11;-1.30;29.10
8402;DHT22;4238;48.404;9.498;2023-03-01T01:07:38;-1.30;26.50
8402;DHT22;4238;48.404;9.498;2023-03-01T01:10:09;-1.30;30.20
8402;DHT22;4238;48.404;9.498;2023-03-01T01:12:38;-1.40;30.60
8402;DHT22;4238;48.404;9.498;2023-03-01T01:15:06;-1.40;35.60
8402;DHT22;4238;48.404;9.498;2023-03-01T01:17:33;-1.40;36.00
8402;DHT22;4238;48.404;9.498;2023-03-01T01:20:00;-1.30;33.90
8402;DHT22;4238;48.404;9.498;2023-03-01T01:22:26;-1.30;30.50
8402;DHT22;4238;48.404;9.498;2023-03-01T01:24:53;-1.20;29.50
8402;DHT22;4238;48.404;9.498;2023-03-01T01:27:21;-1.20;31.30
8402;DHT22;4238;48.404;9.498;2023-03-01T01:29:48;-1.20;32.60
8402;DHT22;4238;48.404;9.498;2023-03-01T01:32:15;-1.10;26.60
8402;DHT22;4238;48.404;9.498;2023-03-01T01:34:42;-1.00;29.10
8402;DHT22;4238;48.404;9.498;2023-03-01T01:37:09;-1.10;23.20
8402;DHT22;4238;48.404;9.498;2023-03-01T01:39:36;-1.00;28.00
8402;DHT22;4238;48.404;9.498;2023-03-01T01:42:03;-1.10;29.90
8402;DHT22;4238;48.404;9.498;2023-03-01T01:44:33;-1.00;33.60
8402;DHT22;4238;48.404;9.498;2023-03-01T01:47:03;-0.90;26.50
8402;DHT22;4238;48.404;9.498;2023-03-01T01:49:33;-1.00;28.90
8402;DHT22;4238;48.404;9.498;2023-03-01T01:52:09;-1.00;33.70
8402;DHT22;4238;48.404;9.498;2023-03-01T01:54:42;-1.10;37.70
8402;DHT22;4238;48.404;9.498;2023-03-01T01:57:16;-1.20;41.30
8402;DHT22;4238;48.404;9.498;2023-03-01T01:59:51;-1.20;44.50
8402;DHT22;4238;48.404;9.498;2023-03-01T02:02:19;-1.20;42.40
8402;DHT22;4238;48.404;9.498;2023-03-01T02:04:48;-1.10;45.40
8402;DHT22;4238;48.404;9.498;2023-03-01T02:07:18;-1.00;36.90
8402;DHT22;4238;48.404;9.498;2023-03-01T02:09:47;-1.10;38.60
8402;DHT22;4238;48.404;9.498;2023-03-01T02:12:14;-1.00;29.50
8402;DHT22;4238;48.404;9.498;2023-03-01T02:14:43;-1.00;32.50
8402;DHT22;4238;48.404;9.498;2023-03-01T02:17:13;-1.10;32.10
8402;DHT22;4238;48.404;9.498;2023-03-01T02:19:55;-1.00;36.10
8402;DHT22;4238;48.404;9.498;2023-03-01T02:22:25;-1.10;38.40
8402;DHT22;4238;48.404;9.498;2023-03-01T02:25:05;-1.10;39.20
8402;DHT22;4238;48.404;9.498;2023-03-01T02:27:40;-1.10;39.70
8402;DHT22;4238;48.404;9.498;2023-03-01T02:30:13;-1.10;42.90
8402;DHT22;4238;48.404;9.498;2023-03-01T02:32:41;-1.10;39.80
8402;DHT22;4238;48.404;9.498;2023-03-01T02:35:09;-1.00;40.70
8402;DHT22;4238;48.404;9.498;2023-03-01T02:37:38;-1.00;38.20
8402;DHT22;4238;48.404;9.498;2023-03-01T02:40:09;-1.00;36.40
8402;DHT22;4238;48.404;9.498;2023-03-01T02:42:45;-1.00;37.60
8402;DHT22;4238;48.404;9.498;2023-03-01T02:45:13;-1.00;37.30
8402;DHT22;4238;48.404;9.498;2023-03-01T02:47:40;-1.00;40.80
8402;DHT22;4238;48.404;9.498;2023-03-01T02:50:19;-1.00;42.20
8402;DHT22;4238;48.404;9.498;2023-03-01T02:52:55;-1.00;40.40
8402;DHT22;4238;48.404;9.498;2023-03-01T02:55:24;-0.90;46.80
8402;DHT22;4238;48.404;9.498;2023-03-01T02:57:51;-0.90;39.40
8402;DHT22;4238;48.404;9.498;2023-03-01T03:00:23;-0.90;39.70
8402;DHT22;4238;48.404;9.498;2023-03-01T03:02:52;-1.00;39.50
8402;DHT22;4238;48.404;9.498;2023-03-01T03:05:21;-1.00;38.10
8402;DHT22;4238;48.404;9.498;2023-03-01T03:07:49;-0.90;37.10
8402;DHT22;4238;48.404;9.498;2023-03-01T03:10:18;-0.90;39.70
8402;DHT22;4238;48.404;9.498;2023-03-01T03:12:49;-1.00;39.90
8402;DHT22;4238;48.404;9.498;2023-03-01T03:15:16;-0.90;27.50
8402;DHT22;4238;48.404;9.498;2023-03-01T03:17:44;-0.90;32.20
8402;DHT22;4238;48.404;9.498;2023-03-01T03:20:14;-0.80;35.60
8402;DHT22;4238;48.404;9.498;2023-03-01T03:22:45;-0.80;28.90
8402;DHT22;4238;48.404;9.498;2023-03-01T03:25:12;-0.80;37.60
8402;DHT22;4238;48.404;9.498;2023-03-01T03:27:40;-0.90;32.50
8402;DHT22;4238;48.404;9.498;2023-03-01T03:30:10;-0.90;38.20
8402;DHT22;4238;48.404;9.498;2023-03-01T03:32:38;-0.90;30.60
8402;DHT22;4238;48.404;9.498;2023-03-01T03:35:09;-0.90;38.00
8402;DHT22;4238;48.404;9.498;2023-03-01T03:37:37;-0.80;27.20
8402;DHT22;4238;48.404;9.498;2023-03-01T03:40:21;-0.80;29.70
8402;DHT22;4238;48.404;9.498;2023-03-01T03:42:48;-0.70;27.10
8402;DHT22;4238;48.404;9.498;2023-03-01T03:45:15;-0.80;27.20
8402;DHT22;4238;48.404;9.498;2023-03-01T03:47:42;-0.70;29.50
8402;DHT22;4238;48.404;9.498;2023-03-01T03:50:12;-0.80;24.90
8402;DHT22;4238;48.404;9.498;2023-03-01T03:52:40;-0.80;28.20
8402;DHT22;4238;48.404;9.498;2023-03-01T03:55:08;-0.70;25.60
8402;DHT22;4238;48.404;9.498;2023-03-01T03:57:37;-0.90;32.40
8402;DHT22;4238;48.404;9.498;2023-03-01T04:00:05;-0.90;32.70
8402;DHT22;4238;48.404;9.498;2023-03-01T04:02:38;-0.90;32.80
8402;DHT22;4238;48.404;9.498;2023-03-01T04:05:06;-0.90;36.10
8402;DHT22;4238;48.404;9.498;2023-03-01T04:07:35;-0.90;28.30
8402;DHT22;4238;48.404;9.498;2023-03-01T04:10:04;-0.80;28.70
8402;DHT22;4238;48.404;9.498;2023-03-01T04:12:32;-0.90;31.10
8402;DHT22;4238;48.404;9.498;2023-03-01T04:14:59;-0.80;31.40
8402;DHT22;4238;48.404;9.498;2023-03-01T04:17:26;-0.90;35.00
8402;DHT22;4238;48.404;9.498;2023-03-01T04:19:53;-0.90;39.40
8402;DHT22;4238;48.404;9.498;2023-03-01T04:22:20;-0.90;40.70
8402;DHT22;4238;48.404;9.498;2023-03-01T04:24:48;-0.90;38.60
8402;DHT22;4238;48.404;9.498;2023-03-01T04:27:15;-0.90;30.80
8402;DHT22;4238;48.404;9.498;2023-03-01T04:29:42;-0.90;33.60
8402;DHT22;4238;48.404;9.498;2023-03-01T04:32:09;-0.90;41.80
8402;DHT22;4238;48.404;9.498;2023-03-01T04:34:35;-0.90;39.00
8402;DHT22;4238;48.404;9.498;2023-03-01T04:37:02;-0.90;40.90
8402;DHT22;4238;48.404;9.498;2023-03-01T04:39:29;-1.00;39.80
8402;DHT22;4238;48.404;9.498;2023-03-01T04:41:57;-1.00;40.00
8402;DHT22;4238;48.404;9.498;2023-03-01T04:44:24;-1.00;37.50
8402;DHT22;4238;48.404;9.498;2023-03-01T04:46:51;-0.90;37.60
8402;DHT22;4238;48.404;9.498;2023-03-01T04:49:18;-0.90;36.40
8402;DHT22;4238;48.404;9.498;2023-03-01T04:51:45;-1.00;40.60
8402;DHT22;4238;48.404;9.498;2023-03-01T04:54:12;-1.10;43.80
8402;DHT22;4238;48.404;9.498;2023-03-01T04:56:39;-1.10;42.90
8402;DHT22;4238;48.404;9.498;2023-03-01T04:59:07;-1.10;46.80
8402;DHT22;4238;48.404;9.498;2023-03-01T05:01:35;-1.10;49.80
8402;DHT22;4238;48.404;9.498;2023-03-01T05:04:03;-1.10;46.10
8402;DHT22;4238;48.404;9.498;2023-03-01T05:06:31;-1.10;49.30
8402;DHT22;4238;48.404;9.498;2023-03-01T05:08:58;-1.00;45.00
8402;DHT22;4238;48.404;9.498;2023-03-01T05:11:25;-1.00;46.20
8402;DHT22;4238;48.404;9.498;2023-03-01T05:13:53;-1.00;45.30
8402;DHT22;4238;48.404;9.498;2023-03-01T05:16:22;-1.00;45.80
8402;DHT22;4238;48.404;9.498;2023-03-01T05:18:49;-1.00;41.70
8402;DHT22;4238;48.404;9.498;2023-03-01T05:21:17;-0.90;35.80
8402;DHT22;4238;48.404;9.498;2023-03-01T05:23:44;-0.90;32.70
8402;DHT22;4238;48.404;9.498;2023-03-01T05:26:12;-0.90;26.00
8402;DHT22;4238;48.404;9.498;2023-03-01T05:28:40;-0.90;27.20
8402;DHT22;4238;48.404;9.498;2023-03-01T05:31:07;-0.80;21.60
8402;DHT22;4238;48.404;9.498;2023-03-01T05:33:37;-0.90;27.60
8402;DHT22;4238;48.404;9.498;2023-03-01T05:36:04;-0.90;32.50
8402;DHT22;4238;48.404;9.498;2023-03-01T05:38:31;-1.00;31.40
8402;DHT22;4238;48.404;9.498;2023-03-01T05:40:58;-0.90;26.30
8402;DHT22;4238;48.404;9.498;2023-03-01T05:43:25;-0.90;30.10
8402;DHT22;4238;48.404;9.498;2023-03-01T05:45:52;-1.00;34.00
8402;DHT22;4238;48.404;9.498;2023-03-01T05:48:19;-1.00;32.30
8402;DHT22;4238;48.404;9.498;2023-03-01T05:50:47;-0.90;25.70
8402;DHT22;4238;48.404;9.498;2023-03-01T05:53:16;-1.00;28.90
8402;DHT22;4238;48.404;9.498;2023-03-01T05:55:44;-1.00;32.00
8402;DHT22;4238;48.404;9.498;2023-03-01T05:58:15;-1.00;32.60
8402;DHT22;4238;48.404;9.498;2023-03-01T06:00:42;-0.90;31.10
8402;DHT22;4238;48.404;9.498;2023-03-01T06:03:11;-1.00;30.70
8402;DHT22;4238;48.404;9.498;2023-03-01T06:05:38;-1.00;33.20
8402;DHT22;4238;48.404;9.498;2023-03-01T06:08:08;-1.00;35.10
8402;DHT22;4238;48.404;9.498;2023-03-01T06:10:35;-1.00;31.50
8402;DHT22;4238;48.404;9.498;2023-03-01T06:13:03;-1.00;29.60
8402;DHT22;4238;48.404;9.498;2023-03-01T06:15:30;-1.00;25.50
8402;DHT22;4238;48.404;9.498;2023-03-01T06:17:57;-1.00;23.70
8402;DHT22;4238;48.404;9.498;2023-03-01T06:20:25;-1.00;25.40
8402;DHT22;4238;48.404;9.498;2023-03-01T06:22:53;-1.10;27.20
8402;DHT22;4238;48.404;9.498;2023-03-01T06:25:23;-1.10;37.20
8402;DHT22;4238;48.404;9.498;2023-03-01T06:27:50;-1.00;32.40
8402;DHT22;4238;48.404;9.498;2023-03-01T06:30:19;-1.10;24.70
8402;DHT22;4238;48.404;9.498;2023-03-01T06:32:46;-1.10;34.40
8402;DHT22;4238;48.404;9.498;2023-03-01T06:35:14;-1.20;29.80
8402;DHT22;4238;48.404;9.498;2023-03-01T06:37:43;-1.20;26.00
8402;DHT22;4238;48.404;9.498;2023-03-01T06:40:11;-1.20;30.30
8402;DHT22;4238;48.404;9.498;2023-03-01T06:42:41;-1.20;29.80
8402;DHT22;4238;48.404;9.498;2023-03-01T06:45:09;-1.10;26.60
8402;DHT22;4238;48.404;9.498;2023-03-01T06:47:36;-1.20;33.40
8402;DHT22;4238;48.404;9.498;2023-03-01T06:50:04;-1.10;19.20
8402;DHT22;4238;48.404;9.498;2023-03-01T06:52:31;-1.10;19.00
8402;DHT22;4238;48.404;9.498;2023-03-01T06:54:58;-1.10;15.90
8402;DHT22;4238;48.404;9.498;2023-03-01T06:57:25;-1.10;14.90
8402;DHT22;4238;48.404;9.498;2023-03-01T06:59:54;-1.20;8.70
8402;DHT22;4238;48.404;9.498;2023-03-01T07:02:21;-1.30;13.90
8402;DHT22;4238;48.404;9.498;2023-03-01T07:04:49;-1.30;18.20
8402;DHT22;4238;48.404;9.498;2023-03-01T07:07:16;-1.20;20.10
8402;DHT22;4238;48.404;9.498;2023-03-01T07:09:44;-1.20;12.90
8402;DHT22;4238;48.404;9.498;2023-03-01T07:12:11;-1.20;12.40
8402;DHT22;4238;48.404;9.498;2023-03-01T07:14:38;-1.20;15.50
8402;DHT22;4238;48.404;9.498;2023-03-01T07:17:07;-1.20;17.50
8402;DHT22;4238;48.404;9.498;2023-03-01T07:19:34;-1.20;14.30
8402;DHT22;4238;48.404;9.498;2023-03-01T07:22:00;-1.10;15.90
8402;DHT22;4238;48.404;9.498;2023-03-01T07:24:29;-1.20;15.60
8402;DHT22;4238;48.404;9.498;2023-03-01T07:26:56;-1.10;8.20
8402;DHT22;4238;48.404;9.498;2023-03-01T07:29:23;-1.20;14.90
8402;DHT22;4238;48.404;9.498;2023-03-01T07:31:50;-1.10;10.90
8402;DHT22;4238;48.404;9.498;2023-03-01T07:34:18;-1.10;11.60
8402;DHT22;4238;48.404;9.498;2023-03-01T07:36:45;-1.00;7.40
8402;DHT22;4238;48.404;9.498;2023-03-01T07:39:13;-1.00;1.00
8402;DHT22;4238;48.404;9.498;2023-03-01T07:41:39;-1.00;1.00
8402;DHT22;4238;48.404;9.498;2023-03-01T07:44:06;-1.00;6.80
8402;DHT22;4238;48.404;9.498;2023-03-01T07:46:33;-1.00;1.00
8402;DHT22;4238;48.404;9.498;2023-03-01T07:49:00;-0.90;1.00
8402;DHT22;4238;48.404;9.498;2023-03-01T07:51:28;-0.90;1.00
8402;DHT22;4238;48.404;9.498;2023-03-01T07:53:55;-0.90;1.00
8402;DHT22;4238;48.404;9.498;2023-03-01T07:56:22;-0.80;1.00
8402;DHT22;4238;48.404;9.498;2023-03-01T07:58:49;-0.70;1.00
8402;DHT22;4238;48.404;9.498;2023-03-01T08:01:17;-0.50;1.00
8402;DHT22;4238;48.404;9.498;2023-03-01T08:03:45;-0.50;1.00
8402;DHT22;4238;48.404;9.498;2023-03-01T08:06:13;-0.50;1.00
8402;DHT22;4238;48.404;9.498;2023-03-01T08:08:42;-0.50;1.00
8402;DHT22;4238;48.404;9.498;2023-03-01T08:11:11;-0.40;1.00
8402;DHT22;4238;48.404;9.498;2023-03-01T08:13:39;-0.40;1.00
8402;DHT22;4238;48.404;9.498;2023-03-01T08:16:08;-0.50;1.00
8402;DHT22;4238;48.404;9.498;2023-03-01T08:18:35;-0.60;1.00
8402;DHT22;4238;48.404;9.498;2023-03-01T08:21:03;-0.60;1.00
8402;DHT22;4238;48.404;9.498;2023-03-01T08:23:30;-0.50;1.00
8402;DHT22;4238;48.404;9.498;2023-03-01T08:26:06;-0.50;1.00
8402;DHT22;4238;48.404;9.498;2023-03-01T08:28:33;-0.60;1.00
8402;DHT22;4238;48.404;9.498;2023-03-01T08:31:00;-0.60;1.00
8402;DHT22;4238;48.404;9.498;2023-03-01T08:33:27;-0.60;1.00
8402;DHT22;4238;48.404;9.498;2023-03-01T08:36:03;-0.50;1.00
8402;DHT22;4238;48.404;9.498;2023-03-01T08:38:30;-0.50;1.00
8402;DHT22;4238;48.404;9.498;2023-03-01T08:40:59;-0.40;1.00
8402;DHT22;4238;48.404;9.498;2023-03-01T08:43:29;-0.40;1.00
8402;DHT22;4238;48.404;9.498;2023-03-01T08:45:56;-0.40;1.00
8402;DHT22;4238;48.404;9.498;2023-03-01T08:48:23;-0.50;1.00
8402;DHT22;4238;48.404;9.498;2023-03-01T08:50:50;-0.50;1.00
8402;DHT22;4238;48.404;9.498;2023-03-01T08:53:17;-0.40;1.00
8402;DHT22;4238;48.404;9.498;2023-03-01T08:55:44;-0.30;1.00
8402;DHT22;4238;48.404;9.498;2023-03-01T08:58:11;-0.40;1.00
8402;DHT22;4238;48.404;9.498;2023-03-01T09:00:39;-0.30;1.00
8402;DHT22;4238;48.404;9.498;2023-03-01T09:03:06;-0.30;1.00
8402;DHT22;4238;48.404;9.498;2023-03-01T09:05:34;-0.20;1.00
8402;DHT22;4238;48.404;9.498;2023-03-01T09:08:02;-0.30;1.00
8402;DHT22;4238;48.404;9.498;2023-03-01T09:10:29;-0.20;1.00
8402;DHT22;4238;48.404;9.498;2023-03-01T09:12:56;-0.10;1.00
8402;DHT22;4238;48.404;9.498;2023-03-01T09:15:23;0.00;1.00
8402;DHT22;4238;48.404;9.498;2023-03-01T09:17:51;0.10;1.00
8402;DHT22;4238;48.404;9.498;2023-03-01T09:20:18;0.00;1.00
8402;DHT22;4238;48.404;9.498;2023-03-01T09:22:45;0.00;1.00
8402;DHT22;4238;48.404;9.498;2023-03-01T09:25:12;-0.10;1.00
8402;DHT22;4238;48.404;9.498;2023-03-01T09:27:39;-0.10;1.00
8402;DHT22;4238;48.404;9.498;2023-03-01T09:30:07;-0.10;1.00
8402;DHT22;4238;48.404;9.498;2023-03-01T09:32:34;0.00;1.00
8402;DHT22;4238;48.404;9.498;2023-03-01T09:35:03;0.10;1.00
8402;DHT22;4238;48.404;9.498;2023-03-01T09:37:33;0.20;1.00
8402;DHT22;4238;48.404;9.498;2023-03-01T09:40:01;0.20;1.00
8402;DHT22;4238;48.404;9.498;2023-03-01T09:42:29;0.20;1.00
8402;DHT22;4238;48.404;9.498;2023-03-01T09:45:02;0.20;1.00
8402;DHT22;4238;48.404;9.498;2023-03-01T09:47:32;0.10;1.00
8402;DHT22;4238;48.404;9.498;2023-03-01T09:50:05;0.10;1.00
8402;DHT22;4238;48.404;9.498;2023-03-01T09:52:39;0.20;1.00
8402;DHT22;4238;48.404;9.498;2023-03-01T09:55:11;0.10;1.00
8402;DHT22;4238;48.404;9.498;2023-03-01T09:57:45;0.20;1.00
8402;DHT22;4238;48.404;9.498;2023-03-01T10:00:23;0.40;1.00
8402;DHT22;4238;48.404;9.498;2023-03-01T10:02:58;0.50;1.00
8402;DHT22;4238;48.404;9.498;2023-03-01T10:05:39;0.60;1.00
8402;DHT22;4238;48.404;9.498;2023-03-01T10:08:27;0.40;1.00
8402;DHT22;4238;48.404;9.498;2023-03-01T10:10:57;0.70;1.00
8402;DHT22;4238;48.404;9.498;2023-03-01T10:13:28;0.60;1.00
8402;DHT22;4238;48.404;9.498;2023-03-01T10:15:59;0.80;1.00
8402;DHT22;4238;48.404;9.498;2023-03-01T10:18:30;1.00;1.00
8402;DHT22;4238;48.404;9.498;2023-03-01T10:21:00;0.90;1.00
8402;DHT22;4238;48.404;9.498;2023-03-01T10:23:30;0.80;1.00
8402;DHT22;4238;48.404;9.498;2023-03-01T10:26:19;0.70;1.00
8402;DHT22;4238;48.404;9.498;2023-03-01T10:28:57;0.80;1.00
8402;DHT22;4238;48.404;9.498;2023-03-01T10:31:36;0.80;1.00
8402;DHT22;4238;48.404;9.498;2023-03-01T10:34:08;0.80;1.00
8402;DHT22;4238;48.404;9.498;2023-03-01T10:36:38;1.10;1.00
8402;DHT22;4238;48.404;9.498;2023-03-01T10:39:13;1.20;99.90
8402;DHT22;4238;48.404;9.498;2023-03-01T10:41:53;1.70;99.90
8402;DHT22;4238;48.404;9.498;2023-03-01T10:44:48;2.40;99.90
8402;DHT22;4238;48.404;9.498;2023-03-01T10:47:19;2.60;87.90
8402;DHT22;4238;48.404;9.498;2023-03-01T10:49:58;2.90;99.90
8402;DHT22;4238;48.404;9.498;2023-03-01T10:52:29;3.20;1.00
8402;DHT22;4238;48.404;9.498;2023-03-01T10:54:59;3.60;99.90
8402;DHT22;4238;48.404;9.498;2023-03-01T10:57:37;3.60;99.90
8402;DHT22;4238;48.404;9.498;2023-03-01T11:00:20;3.30;1.00
8402;DHT22;4238;48.404;9.498;2023-03-01T11:02:49;2.90;1.00
8402;DHT22;4238;48.404;9.498;2023-03-01T11:05:20;2.80;99.90
8402;DHT22;4238;48.404;9.498;2023-03-01T11:07:52;2.70;99.90
8402;DHT22;4238;48.404;9.498;2023-03-01T11:10:21;2.80;99.90
8402;DHT22;4238;48.404;9.498;2023-03-01T11:12:48;2.70;58.70
8402;DHT22;4238;48.404;9.498;2023-03-01T11:15:22;2.60;41.20
8402;DHT22;4238;48.404;9.498;2023-03-01T11:17:50;2.00;99.90
8402;DHT22;4238;48.404;9.498;2023-03-01T11:20:25;2.20;1.00
8402;DHT22;4238;48.404;9.498;2023-03-01T11:22:56;2.40;99.90
8402;DHT22;4238;48.404;9.498;2023-03-01T11:25:26;3.10;99.90
8402;DHT22;4238;48.404;9.498;2023-03-01T11:27:53;3.50;1.00
8402;DHT22;4238;48.404;9.498;2023-03-01T11:30:24;3.90;1.00
8402;DHT22;4238;48.404;9.498;2023-03-01T11:33:01;4.00;99.90
8402;DHT22;4238;48.404;9.498;2023-03-01T11:35:30;4.30;1.00
8402;DHT22;4238;48.404;9.498;2023-03-01T11:38:15;4.70;99.90
8402;DHT22;4238;48.404;9.498;2023-03-01T11:40:46;4.60;99.90
8402;DHT22;4238;48.404;9.498;2023-03-01T11:43:22;4.70;99.90
8402;DHT22;4238;48.404;9.498;2023-03-01T11:46:16;4.90;1.00
8402;DHT22;4238;48.404;9.498;2023-03-01T11:48:57;4.50;1.00
8402;DHT22;4238;48.404;9.498;2023-03-01T11:51:41;4.90;1.00
8402;DHT22;4238;48.404;9.498;2023-03-01T11:54:27;5.20;1.00
8402;DHT22;4238;48.404;9.498;2023-03-01T11:57:00;5.60;1.00
8402;DHT22;4238;48.404;9.498;2023-03-01T12:00:00;5.60;1.00
8402;DHT22;4238;48.404;9.498;2023-03-01T12:03:07;5.90;99.90
8402;DHT22;4238;48.404;9.498;2023-03-01T12:05:52;5.90;99.90
8402;DHT22;4238;48.404;9.498;2023-03-01T12:08:28;6.40;1.00
8402;DHT22;4238;48.404;9.498;2023-03-01T12:11:06;6.50;1.00
8402;DHT22;4238;48.404;9.498;2023-03-01T12:13:56;6.60;1.00
8402;DHT22;4238;48.404;9.498;2023-03-01T12:16:34;6.60;1.00
8402;DHT22;4238;48.404;9.498;2023-03-01T12:19:17;6.50;1.00
8402;DHT22;4238;48.404;9.498;2023-03-01T12:22:11;6.80;1.00
8402;DHT22;4238;48.404;9.498;2023-03-01T12:27:56;6.80;99.90
8402;DHT22;4238;48.404;9.498;2023-03-01T12:30:35;6.80;99.90
8402;DHT22;4238;48.404;9.498;2023-03-01T12:33:15;6.50;99.90
8402;DHT22;4238;48.404;9.498;2023-03-01T12:36:13;6.60;1.00
8402;DHT22;4238;48.404;9.498;2023-03-01T12:38:49;6.90;1.00
8402;DHT22;4238;48.404;9.498;2023-03-01T12:41:32;7.10;99.90
8402;DHT22;4238;48.404;9.498;2023-03-01T12:44:15;7.20;99.90
8402;DHT22;4238;48.404;9.498;2023-03-01T12:46:56;7.50;99.90
8402;DHT22;4238;48.404;9.498;2023-03-01T12:49:31;6.90;99.90
8402;DHT22;4238;48.404;9.498;2023-03-01T12:52:03;7.20;1.00
8402;DHT22;4238;48.404;9.498;2023-03-01T12:54:36;7.30;99.90
8402;DHT22;4238;48.404;9.498;2023-03-01T12:57:11;7.50;99.90
8402;DHT22;4238;48.404;9.498;2023-03-01T13:00:00;7.30;99.90
8402;DHT22;4238;48.404;9.498;2023-03-01T13:02:35;7.30;99.90
8402;DHT22;4238;48.404;9.498;2023-03-01T13:08:06;7.50;99.90
8402;DHT22;4238;48.404;9.498;2023-03-01T13:10:43;7.70;99.90
8402;DHT22;4238;48.404;9.498;2023-03-01T13:13:19;7.60;99.90
8402;DHT22;4238;48.404;9.498;2023-03-01T13:15:48;7.80;99.90
8402;DHT22;4238;48.404;9.498;2023-03-01T13:18:32;7.80;99.90
8402;DHT22;4238;48.404;9.498;2023-03-01T13:21:02;7.80;99.90
8402;DHT22;4238;48.404;9.498;2023-03-01T13:23:36;7.90;99.90
8402;DHT22;4238;48.404;9.498;2023-03-01T13:26:09;7.40;99.90
8402;DHT22;4238;48.404;9.498;2023-03-01T13:28:59;7.20;99.90
8402;DHT22;4238;48.404;9.498;2023-03-01T13:32:00;7.30;99.90
8402;DHT22;4238;48.404;9.498;2023-03-01T13:34:57;7.80;99.90
8402;DHT22;4238;48.404;9.498;2023-03-01T13:37:32;7.50;99.90
8402;DHT22;4238;48.404;9.498;2023-03-01T13:40:04;7.50;99.90
8402;DHT22;4238;48.404;9.498;2023-03-01T13:42:41;7.50;99.90
8402;DHT22;4238;48.404;9.498;2023-03-01T13:45:32;7.00;99.90
8402;DHT22;4238;48.404;9.498;2023-03-01T13:48:02;7.20;99.90
8402;DHT22;4238;48.404;9.498;2023-03-01T13:50:43;7.20;99.90
8402;DHT22;4238;48.404;9.498;2023-03-01T13:53:16;7.50;99.90
8402;DHT22;4238;48.404;9.498;2023-03-01T13:55:46;7.70;99.90
8402;DHT22;4238;48.404;9.498;2023-03-01T13:58:22;7.60;99.90
8402;DHT22;4238;48.404;9.498;2023-03-01T14:00:56;7.50;99.90
8402;DHT22;4238;48.404;9.498;2023-03-01T14:03:25;7.60;99.90
8402;DHT22;4238;48.404;9.498;2023-03-01T14:06:01;7.30;99.90
8402;DHT22;4238;48.404;9.498;2023-03-01T14:08:30;6.80;99.90
8402;DHT22;4238;48.404;9.498;2023-03-01T14:11:32;7.00;99.90
8402;DHT22;4238;48.404;9.498;2023-03-01T14:17:00;6.90;99.90
8402;DHT22;4238;48.404;9.498;2023-03-01T14:19:33;6.80;99.90
8402;DHT22;4238;48.404;9.498;2023-03-01T14:22:10;6.90;99.90
8402;DHT22;4238;48.404;9.498;2023-03-01T14:24:44;6.80;99.90
8402;DHT22;4238;48.404;9.498;2023-03-01T14:27:13;6.70;99.90
8402;DHT22;4238;48.404;9.498;2023-03-01T14:29:40;6.50;99.90
8402;DHT22;4238;48.404;9.498;2023-03-01T14:32:15;6.50;1.00
8402;DHT22;4238;48.404;9.498;2023-03-01T14:34:46;6.50;1.00
8402;DHT22;4238;48.404;9.498;2023-03-01T14:37:20;6.50;1.00
8402;DHT22;4238;48.404;9.498;2023-03-01T14:39:47;6.80;1.00
8402;DHT22;4238;48.404;9.498;2023-03-01T14:42:15;6.60;1.00
8402;DHT22;4238;48.404;9.498;2023-03-01T14:44:43;6.50;1.00
8402;DHT22;4238;48.404;9.498;2023-03-01T14:47:12;6.60;1.00
8402;DHT22;4238;48.404;9.498;2023-03-01T14:49:42;6.40;1.00
8402;DHT22;4238;48.404;9.498;2023-03-01T14:52:20;6.30;1.00
8402;DHT22;4238;48.404;9.498;2023-03-01T14:54:48;6.40;1.00
8402;DHT22;4238;48.404;9.498;2023-03-01T14:57:18;6.40;1.00
8402;DHT22;4238;48.404;9.498;2023-03-01T14:59:47;6.00;1.00
8402;DHT22;4238;48.404;9.498;2023-03-01T15:02:18;6.00;16.00
8402;DHT22;4238;48.404;9.498;2023-03-01T15:04:47;6.00;34.30
8402;DHT22;4238;48.404;9.498;2023-03-01T15:07:15;6.00;9.10
8402;DHT22;4238;48.404;9.498;2023-03-01T15:09:44;6.00;1.00
8402;DHT22;4238;48.404;9.498;2023-03-01T15:12:37;6.20;1.00
8402;DHT22;4238;48.404;9.498;2023-03-01T15:15:34;6.00;30.30
8402;DHT22;4238;48.404;9.498;2023-03-01T15:18:04;6.00;92.60
8402;DHT22;4238;48.404;9.498;2023-03-01T15:20:33;5.90;99.90
8402;DHT22;4238;48.404;9.498;2023-03-01T15:23:02;6.00;99.90
8402;DHT22;4238;48.404;9.498;2023-03-01T15:25:32;5.90;99.90
8402;DHT22;4238;48.404;9.498;2023-03-01T15:28:01;5.80;99.90
8402;DHT22;4238;48.404;9.498;2023-03-01T15:30:30;5.60;99.90
8402;DHT22;4238;48.404;9.498;2023-03-01T15:33:29;5.70;99.90
8402;DHT22;4238;48.404;9.498;2023-03-01T15:35:57;5.70;99.90
8402;DHT22;4238;48.404;9.498;2023-03-01T15:38:30;5.70;99.90
8402;DHT22;4238;48.404;9.498;2023-03-01T15:41:01;5.40;99.90
8402;DHT22;4238;48.404;9.498;2023-03-01T15:43:40;5.30;99.90
8402;DHT22;4238;48.404;9.498;2023-03-01T15:46:16;5.30;1.00
8402;DHT22;4238;48.404;9.498;2023-03-01T15:48:45;5.40;1.00
8402;DHT22;4238;48.404;9.498;2023-03-01T15:51:15;5.50;1.00
8402;DHT22;4238;48.404;9.498;2023-03-01T15:53:47;5.30;1.00
8402;DHT22;4238;48.404;9.498;2023-03-01T15:56:17;5.30;1.00
8402;DHT22;4238;48.404;9.498;2023-03-01T15:58:44;5.20;1.00
8402;DHT22;4238;48.404;9.498;2023-03-01T16:01:13;5.10;1.00
8402;DHT22;4238;48.404;9.498;2023-03-01T16:03:41;5.10;38.00
8402;DHT22;4238;48.404;9.498;2023-03-01T16:06:09;4.90;99.90
8402;DHT22;4238;48.404;9.498;2023-03-01T16:08:36;4.90;99.90
8402;DHT22;4238;48.404;9.498;2023-03-01T16:11:04;4.90;99.90
8402;DHT22;4238;48.404;9.498;2023-03-01T16:13:32;4.90;99.90
8402;DHT22;4238;48.404;9.498;2023-03-01T16:15:59;4.90;1.00
8402;DHT22;4238;48.404;9.498;2023-03-01T16:18:26;4.90;1.00
8402;DHT22;4238;48.404;9.498;2023-03-01T16:20:53;4.70;1.00
8402;DHT22;4238;48.404;9.498;2023-03-01T16:23:20;4.60;1.90
8402;DHT22;4238;48.404;9.498;2023-03-01T16:25:50;4.70;92.60
8402;DHT22;4238;48.404;9.498;2023-03-01T16:28:17;4.60;99.90
8402;DHT22;4238;48.404;9.498;2023-03-01T16:30:47;4.60;99.90
8402;DHT22;4238;48.404;9.498;2023-03-01T16:33:14;4.60;99.90
8402;DHT22;4238;48.404;9.498;2023-03-01T16:35:41;4.50;1.00
8402;DHT22;4238;48.404;9.498;2023-03-01T16:38:09;4.50;99.90
8402;DHT22;4238;48.404;9.498;2023-03-01T16:40:36;4.40;1.00
8402;DHT22;4238;48.404;9.498;2023-03-01T16:43:03;4.20;1.00
8402;DHT22;4238;48.404;9.498;2023-03-01T16:45:33;4.10;99.90
8402;DHT22;4238;48.404;9.498;2023-03-01T16:48:02;4.00;1.00